ETNG

Details ICAO ETNG (GKE)
Name GEILENKIRCHEN
Region Germany - Military
Timezone Europe/Berlin (UTC+2.0)
Plans Departing 53
Arriving 30
Stats Elevation 296 ft / 90 m (AMSL)
Location 50.960833° 6.041750°
Runways 1
Magnetic Variation 1.657° E
Sunrise 2018-05-25 03:35:09 UTC / 2018-05-25 05:35:09 Local
Sunset 2018-05-25 19:33:15 UTC / 2018-05-25 21:33:15 Local
Advertisement - Login to hide

Runways

ID Width Length Bearing (true) Bearing (mag) Surface Threshold Offset Overrun Length
09 147 ft / 45 m 9,980 ft / 3,042 m 90.74° 89.08° Concrete 491 ft / 150 m 0 ft / 0 m
27 147 ft / 45 m 9,980 ft / 3,042 m 270.77° 269.11° Concrete 491 ft / 150 m 0 ft / 0 m

Approach Navaids

Runway Type Ident Frequency Range Bearing (true) Bearing (mag) Slope Elevation
27 Localiser GIX 110.10 MHz 18 nm / 33 km 270.57° 268.92° - 263 ft / 80 m (AMSL)
27 Glidescope GIX 110.10 MHz 10 nm / 19 km 270.76° 269.10° 3.00° 289 ft / 88 m (AMSL)

Map

Weather


0- 5 10 15 20 25 30 35+ Temperature / ° C

Clouds and Precipitation
Forecast for 2018-05-26 00:00 UTC. Updated a few seconds ago

Ground ~20,000 ft ~40,000 ft Winds

METAR

Not found

TAF

TAF ETNG 251400Z 2515/2606 35003KT 9999 SCT040 BECMG 2515/2518 10005KT PROB30 TEMPO 2515/2518 -SHRA SCT035TCU

Frequencies

Tower 122.10 MHz FRISBEE TWR
Approach 123.30 MHz FRISBEE RADAR
Approach 128.50 MHz LANGEN CON
Approach 123.72 MHz FRISBEE RADAR
Warning: Do not use this data for real-world aviation or navigation. No guarantee of current accuracy is given.